Hauptseite
METAR-TAF:

METAR-TAF

Flughäfen :

Flughafen Lycksele

Lycksele, Schweden

Breite: 64-32-51N, Länge: 018-43-03E, Höhe: 211 m

Beobachtung

Neuester Wetterbericht von vor 53 Minuten, um 18:50 UTC
Wind 7 kt aus Süd/Südost
Temperatur 21°C
Luftfeuchtigkeit 35%
Luftdruck 1020 hPa
Sichtweite 10 km oder mehr

METAR: ESNL 231850Z AUTO 16007KT 9999 NCD 21/05 Q1020

Zeit: 21:43 (19:43 UTC)


TAF: fehlend

Wetterbeobachtungen und Prognosen von mehr als 4000 Flughäfen (METAR und TAF Bericht).

Die verfügbaren Stationen werden durch gelbe und rote Markierungen auf der Karte dargestellt.

Führen Sie die Maus auf sie, um den Namen der Station zu sehen.

Darauf klicken, um die Beobachtung von Wetterbeobachtungen und Prognosen zu sehen.

Um die Karte zu ändern : klicken Sie auf den grünen Tasten mit einem schwarzen Kreuz Zum Vergrößern, auf den grünen Button mit einem Gedankenstrich zu verkleinern, oder auf die grünen Pfeile für benachbarte Karten.


METAR-TAF: